sensor_id;sensor_type;location;lat;lon;timestamp;pressure;altitude;pressure_sealevel;temperature;humidity
64078;BME280;51039;49.696;10.808;2023-02-08T00:02:19;100504.91;;;-6.33;89.94
64078;BME280;51039;49.696;10.808;2023-02-08T00:04:44;100504.22;;;-6.39;89.97
64078;BME280;51039;49.696;10.808;2023-02-08T00:07:09;100505.97;;;-6.40;90.34
64078;BME280;51039;49.696;10.808;2023-02-08T00:09:35;100496.97;;;-6.56;90.05
64078;BME280;51039;49.696;10.808;2023-02-08T00:12:00;100505.66;;;-6.60;90.45
64078;BME280;51039;49.696;10.808;2023-02-08T00:14:25;100509.88;;;-6.56;90.42
64078;BME280;51039;49.696;10.808;2023-02-08T00:16:51;100498.22;;;-6.71;90.76
64078;BME280;51039;49.696;10.808;2023-02-08T00:19:16;100503.97;;;-6.61;90.84
64078;BME280;51039;49.696;10.808;2023-02-08T00:21:41;100515.81;;;-6.54;90.77
64078;BME280;51039;49.696;10.808;2023-02-08T00:24:06;100505.50;;;-6.54;90.51
64078;BME280;51039;49.696;10.808;2023-02-08T00:26:32;100509.72;;;-6.52;90.65
64078;BME280;51039;49.696;10.808;2023-02-08T00:28:57;100515.03;;;-6.56;90.18
64078;BME280;51039;49.696;10.808;2023-02-08T00:31:23;100516.84;;;-6.60;90.39
64078;BME280;51039;49.696;10.808;2023-02-08T00:33:48;100520.28;;;-6.61;90.46
64078;BME280;51039;49.696;10.808;2023-02-08T00:36:13;100510.72;;;-6.57;90.46
64078;BME280;51039;49.696;10.808;2023-02-08T00:38:38;100509.91;;;-6.58;90.40
64078;BME280;51039;49.696;10.808;2023-02-08T00:41:04;100507.34;;;-6.59;90.24
64078;BME280;51039;49.696;10.808;2023-02-08T00:43:30;100512.59;;;-6.62;90.08
64078;BME280;51039;49.696;10.808;2023-02-08T00:45:56;100511.88;;;-6.67;90.08
64078;BME280;51039;49.696;10.808;2023-02-08T00:48:22;100515.53;;;-6.76;90.32
64078;BME280;51039;49.696;10.808;2023-02-08T00:53:22;100512.28;;;-6.83;90.21
64078;BME280;51039;49.696;10.808;2023-02-08T00:55:51;100512.19;;;-6.80;90.66
64078;BME280;51039;49.696;10.808;2023-02-08T00:58:20;100509.59;;;-6.80;90.58
64078;BME280;51039;49.696;10.808;2023-02-08T01:00:46;100521.09;;;-6.93;90.56
64078;BME280;51039;49.696;10.808;2023-02-08T01:03:13;100511.66;;;-6.93;91.52
64078;BME280;51039;49.696;10.808;2023-02-08T01:05:39;100515.81;;;-6.87;91.15
64078;BME280;51039;49.696;10.808;2023-02-08T01:08:04;100519.28;;;-6.88;91.02
64078;BME280;51039;49.696;10.808;2023-02-08T01:10:29;100514.44;;;-7.00;91.41
64078;BME280;51039;49.696;10.808;2023-02-08T01:12:56;100527.16;;;-6.94;91.73
64078;BME280;51039;49.696;10.808;2023-02-08T01:15:22;100521.25;;;-6.99;91.37
64078;BME280;51039;49.696;10.808;2023-02-08T01:17:48;100524.47;;;-6.89;91.62
64078;BME280;51039;49.696;10.808;2023-02-08T01:20:18;100522.84;;;-6.94;91.20
64078;BME280;51039;49.696;10.808;2023-02-08T01:22:43;100527.94;;;-6.91;91.26
64078;BME280;51039;49.696;10.808;2023-02-08T01:25:08;100515.88;;;-6.90;91.02
64078;BME280;51039;49.696;10.808;2023-02-08T01:27:34;100518.78;;;-7.02;90.50
64078;BME280;51039;49.696;10.808;2023-02-08T01:30:00;100522.16;;;-7.00;90.87
64078;BME280;51039;49.696;10.808;2023-02-08T01:32:25;100518.81;;;-7.04;90.85
64078;BME280;51039;49.696;10.808;2023-02-08T01:34:51;100513.66;;;-7.04;90.79
64078;BME280;51039;49.696;10.808;2023-02-08T01:37:16;100517.00;;;-7.00;91.19
64078;BME280;51039;49.696;10.808;2023-02-08T01:39:41;100513.69;;;-7.05;91.37
64078;BME280;51039;49.696;10.808;2023-02-08T01:42:09;100511.34;;;-7.15;91.11
64078;BME280;51039;49.696;10.808;2023-02-08T01:47:44;100511.66;;;-7.27;91.32
64078;BME280;51039;49.696;10.808;2023-02-08T01:50:13;100516.66;;;-7.21;91.47
64078;BME280;51039;49.696;10.808;2023-02-08T01:52:39;100504.56;;;-7.19;91.48
64078;BME280;51039;49.696;10.808;2023-02-08T01:55:23;100512.38;;;-7.22;91.13
64078;BME280;51039;49.696;10.808;2023-02-08T01:57:56;100506.47;;;-7.25;91.41
64078;BME280;51039;49.696;10.808;2023-02-08T02:00:25;100508.97;;;-7.24;91.34
64078;BME280;51039;49.696;10.808;2023-02-08T02:02:52;100499.56;;;-7.23;91.35
64078;BME280;51039;49.696;10.808;2023-02-08T02:05:20;100502.31;;;-7.31;91.16
64078;BME280;51039;49.696;10.808;2023-02-08T02:07:48;100499.59;;;-7.25;91.92
64078;BME280;51039;49.696;10.808;2023-02-08T02:10:17;100494.47;;;-7.26;91.91
64078;BME280;51039;49.696;10.808;2023-02-08T02:12:49;100494.41;;;-7.23;91.74
64078;BME280;51039;49.696;10.808;2023-02-08T02:15:16;100495.16;;;-7.20;91.83
64078;BME280;51039;49.696;10.808;2023-02-08T02:17:42;100500.38;;;-7.21;91.62
64078;BME280;51039;49.696;10.808;2023-02-08T02:20:10;100500.47;;;-7.27;92.13
64078;BME280;51039;49.696;10.808;2023-02-08T02:27:58;100494.63;;;-7.33;91.27
64078;BME280;51039;49.696;10.808;2023-02-08T02:30:56;100498.09;;;-7.35;91.17
64078;BME280;51039;49.696;10.808;2023-02-08T02:33:29;100493.06;;;-7.40;91.08
64078;BME280;51039;49.696;10.808;2023-02-08T02:36:08;100488.88;;;-7.44;90.98
64078;BME280;51039;49.696;10.808;2023-02-08T02:50:31;100491.69;;;-7.55;91.59
64078;BME280;51039;49.696;10.808;2023-02-08T02:53:09;100485.69;;;-7.54;91.48
64078;BME280;51039;49.696;10.808;2023-02-08T02:55:42;100481.47;;;-7.56;91.39
64078;BME280;51039;49.696;10.808;2023-02-08T02:58:12;100475.47;;;-7.58;91.22
64078;BME280;51039;49.696;10.808;2023-02-08T03:00:40;100484.78;;;-7.53;91.12
64078;BME280;51039;49.696;10.808;2023-02-08T03:03:08;100488.56;;;-7.67;90.81
64078;BME280;51039;49.696;10.808;2023-02-08T03:05:50;100491.06;;;-7.64;91.16
64078;BME280;51039;49.696;10.808;2023-02-08T03:11:14;100488.22;;;-7.52;91.15
64078;BME280;51039;49.696;10.808;2023-02-08T03:13:58;100478.00;;;-7.57;90.97
64078;BME280;51039;49.696;10.808;2023-02-08T03:19:25;100488.13;;;-7.86;91.83
64078;BME280;51039;49.696;10.808;2023-02-08T03:21:57;100480.09;;;-7.73;92.51
64078;BME280;51039;49.696;10.808;2023-02-08T03:30:01;100480.44;;;-7.88;91.61
64078;BME280;51039;49.696;10.808;2023-02-08T03:32:37;100486.22;;;-7.78;91.74
64078;BME280;51039;49.696;10.808;2023-02-08T03:35:18;100494.19;;;-7.89;91.16
64078;BME280;51039;49.696;10.808;2023-02-08T03:37:49;100488.22;;;-7.91;91.74
64078;BME280;51039;49.696;10.808;2023-02-08T03:40:23;100484.63;;;-7.84;91.60
64078;BME280;51039;49.696;10.808;2023-02-08T03:42:53;100483.03;;;-7.90;91.48
64078;BME280;51039;49.696;10.808;2023-02-08T03:45:23;100475.69;;;-8.06;91.02
64078;BME280;51039;49.696;10.808;2023-02-08T03:47:53;100491.22;;;-8.11;91.66
64078;BME280;51039;49.696;10.808;2023-02-08T03:50:23;100472.25;;;-8.05;91.87
64078;BME280;51039;49.696;10.808;2023-02-08T03:52:49;100473.91;;;-8.03;91.91
64078;BME280;51039;49.696;10.808;2023-02-08T03:55:17;100479.16;;;-8.07;91.36
64078;BME280;51039;49.696;10.808;2023-02-08T04:00:50;100479.03;;;-8.01;91.04
64078;BME280;51039;49.696;10.808;2023-02-08T04:03:23;100477.22;;;-7.98;91.12
64078;BME280;51039;49.696;10.808;2023-02-08T04:05:52;100478.19;;;-8.02;90.99
64078;BME280;51039;49.696;10.808;2023-02-08T04:08:18;100476.47;;;-8.03;90.96
64078;BME280;51039;49.696;10.808;2023-02-08T04:10:44;100476.47;;;-8.03;90.73
64078;BME280;51039;49.696;10.808;2023-02-08T04:13:11;100481.91;;;-8.15;90.80
64078;BME280;51039;49.696;10.808;2023-02-08T04:15:36;100477.56;;;-8.13;91.45
64078;BME280;51039;49.696;10.808;2023-02-08T04:18:01;100476.81;;;-8.18;91.39
64078;BME280;51039;49.696;10.808;2023-02-08T04:20:27;100475.03;;;-8.15;91.96
64078;BME280;51039;49.696;10.808;2023-02-08T04:22:52;100478.25;;;-8.06;92.14
64078;BME280;51039;49.696;10.808;2023-02-08T04:25:18;100479.28;;;-8.14;91.61
64078;BME280;51039;49.696;10.808;2023-02-08T04:27:43;100481.22;;;-8.23;91.68
64078;BME280;51039;49.696;10.808;2023-02-08T04:30:09;100484.47;;;-8.15;91.89
64078;BME280;51039;49.696;10.808;2023-02-08T04:32:34;100486.94;;;-8.12;91.95
64078;BME280;51039;49.696;10.808;2023-02-08T04:35:00;100487.88;;;-8.15;91.99
64078;BME280;51039;49.696;10.808;2023-02-08T04:37:25;100481.91;;;-8.15;91.59
64078;BME280;51039;49.696;10.808;2023-02-08T04:39:51;100483.56;;;-8.14;91.48
64078;BME280;51039;49.696;10.808;2023-02-08T04:42:16;100484.31;;;-8.07;92.27
64078;BME280;51039;49.696;10.808;2023-02-08T04:44:41;100484.19;;;-8.03;92.59
64078;BME280;51039;49.696;10.808;2023-02-08T04:47:06;100481.44;;;-7.94;92.76
64078;BME280;51039;49.696;10.808;2023-02-08T04:49:32;100482.25;;;-7.93;92.55
64078;BME280;51039;49.696;10.808;2023-02-08T04:51:57;100478.03;;;-7.96;91.98
64078;BME280;51039;49.696;10.808;2023-02-08T04:54:22;100474.63;;;-7.96;92.04
64078;BME280;51039;49.696;10.808;2023-02-08T04:56:48;100478.16;;;-8.00;91.81
64078;BME280;51039;49.696;10.808;2023-02-08T04:59:13;100486.75;;;-8.03;91.80
64078;BME280;51039;49.696;10.808;2023-02-08T05:01:39;100482.69;;;-8.13;91.07
64078;BME280;51039;49.696;10.808;2023-02-08T05:04:04;100487.00;;;-8.14;91.05
64078;BME280;51039;49.696;10.808;2023-02-08T05:06:30;100488.13;;;-8.25;90.78
64078;BME280;51039;49.696;10.808;2023-02-08T05:08:55;100483.88;;;-8.30;91.02
64078;BME280;51039;49.696;10.808;2023-02-08T05:11:21;100485.75;;;-8.36;91.37
64078;BME280;51039;49.696;10.808;2023-02-08T05:13:48;100490.91;;;-8.38;91.28
64078;BME280;51039;49.696;10.808;2023-02-08T05:16:14;100491.75;;;-8.37;91.73
64078;BME280;51039;49.696;10.808;2023-02-08T05:18:39;100488.28;;;-8.35;91.85
64078;BME280;51039;49.696;10.808;2023-02-08T05:21:05;100486.66;;;-8.39;91.73
64078;BME280;51039;49.696;10.808;2023-02-08T05:23:30;100484.81;;;-8.32;92.00
64078;BME280;51039;49.696;10.808;2023-02-08T05:25:56;100490.88;;;-8.35;91.53
64078;BME280;51039;49.696;10.808;2023-02-08T05:28:21;100484.81;;;-8.34;91.53
64078;BME280;51039;49.696;10.808;2023-02-08T05:30:46;100494.38;;;-8.39;91.51
64078;BME280;51039;49.696;10.808;2023-02-08T05:33:12;100483.16;;;-8.35;91.84
64078;BME280;51039;49.696;10.808;2023-02-08T05:35:37;100486.59;;;-8.36;91.59
64078;BME280;51039;49.696;10.808;2023-02-08T05:38:03;100489.16;;;-8.36;91.44
64078;BME280;51039;49.696;10.808;2023-02-08T05:40:28;100490.19;;;-8.43;91.27
64078;BME280;51039;49.696;10.808;2023-02-08T05:42:54;100493.63;;;-8.42;91.06
64078;BME280;51039;49.696;10.808;2023-02-08T05:45:19;100485.09;;;-8.44;90.97
64078;BME280;51039;49.696;10.808;2023-02-08T05:47:44;100497.06;;;-8.45;91.08
64078;BME280;51039;49.696;10.808;2023-02-08T05:50:11;100489.38;;;-8.45;91.31
64078;BME280;51039;49.696;10.808;2023-02-08T05:52:37;100488.53;;;-8.45;91.30
64078;BME280;51039;49.696;10.808;2023-02-08T05:55:03;100488.69;;;-8.55;90.92
64078;BME280;51039;49.696;10.808;2023-02-08T05:57:28;100492.97;;;-8.52;90.96
64078;BME280;51039;49.696;10.808;2023-02-08T05:59:54;100495.53;;;-8.52;91.16
64078;BME280;51039;49.696;10.808;2023-02-08T06:02:19;100498.00;;;-8.49;91.08
64078;BME280;51039;49.696;10.808;2023-02-08T06:04:44;100495.56;;;-8.54;91.14
64078;BME280;51039;49.696;10.808;2023-02-08T06:07:10;100491.31;;;-8.56;91.26
64078;BME280;51039;49.696;10.808;2023-02-08T06:09:35;100494.72;;;-8.54;91.03
64078;BME280;51039;49.696;10.808;2023-02-08T06:12:01;100493.91;;;-8.56;90.71
64078;BME280;51039;49.696;10.808;2023-02-08T06:14:26;100491.47;;;-8.64;90.55
64078;BME280;51039;49.696;10.808;2023-02-08T06:16:52;100489.75;;;-8.63;91.13
64078;BME280;51039;49.696;10.808;2023-02-08T06:19:17;100497.47;;;-8.65;91.50
64078;BME280;51039;49.696;10.808;2023-02-08T06:21:42;100502.50;;;-8.59;91.44
64078;BME280;51039;49.696;10.808;2023-02-08T06:24:07;100498.34;;;-8.66;90.79
64078;BME280;51039;49.696;10.808;2023-02-08T06:26:34;100497.34;;;-8.59;91.33
64078;BME280;51039;49.696;10.808;2023-02-08T06:28:59;100494.03;;;-8.64;91.04
64078;BME280;51039;49.696;10.808;2023-02-08T06:31:24;100495.75;;;-8.66;90.88
64078;BME280;51039;49.696;10.808;2023-02-08T06:33:50;100496.56;;;-8.62;91.09
64078;BME280;51039;49.696;10.808;2023-02-08T06:36:15;100507.63;;;-8.59;91.03
64078;BME280;51039;49.696;10.808;2023-02-08T06:38:40;100501.78;;;-8.65;90.40
64078;BME280;51039;49.696;10.808;2023-02-08T06:41:06;100507.72;;;-8.63;90.73
64078;BME280;51039;49.696;10.808;2023-02-08T06:43:31;100505.19;;;-8.65;90.67
64078;BME280;51039;49.696;10.808;2023-02-08T06:45:56;100514.63;;;-8.65;90.19
64078;BME280;51039;49.696;10.808;2023-02-08T06:48:22;100515.44;;;-8.63;90.17
64078;BME280;51039;49.696;10.808;2023-02-08T06:50:47;100512.69;;;-8.54;90.41
64078;BME280;51039;49.696;10.808;2023-02-08T06:53:12;100511.00;;;-8.55;90.04
64078;BME280;51039;49.696;10.808;2023-02-08T06:55:38;100509.19;;;-8.50;90.36
64078;BME280;51039;49.696;10.808;2023-02-08T06:58:04;100519.38;;;-8.45;90.00
64078;BME280;51039;49.696;10.808;2023-02-08T07:00:29;100513.38;;;-8.44;89.92
64078;BME280;51039;49.696;10.808;2023-02-08T07:02:54;100511.63;;;-8.44;89.48
64078;BME280;51039;49.696;10.808;2023-02-08T07:05:20;100514.22;;;-8.45;89.47
64078;BME280;51039;49.696;10.808;2023-02-08T07:07:45;100519.22;;;-8.39;89.45
64078;BME280;51039;49.696;10.808;2023-02-08T07:10:12;100518.25;;;-8.34;89.36
64078;BME280;51039;49.696;10.808;2023-02-08T07:12:38;100524.78;;;-8.17;89.72
64078;BME280;51039;49.696;10.808;2023-02-08T07:15:04;100524.66;;;-8.11;89.34
64078;BME280;51039;49.696;10.808;2023-02-08T07:17:29;100531.34;;;-8.02;90.64
64078;BME280;51039;49.696;10.808;2023-02-08T07:19:54;100529.31;;;-7.49;96.00
64078;BME280;51039;49.696;10.808;2023-02-08T07:22:20;100535.28;;;-7.09;96.71
64078;BME280;51039;49.696;10.808;2023-02-08T07:24:45;100531.81;;;-6.76;95.33
64078;BME280;51039;49.696;10.808;2023-02-08T07:27:11;100531.28;;;-6.54;93.01
64078;BME280;51039;49.696;10.808;2023-02-08T07:29:37;100528.50;;;-6.46;90.41
64078;BME280;51039;49.696;10.808;2023-02-08T07:32:03;100530.56;;;-6.28;89.45
64078;BME280;51039;49.696;10.808;2023-02-08T07:34:30;100532.78;;;-6.47;86.98
64078;BME280;51039;49.696;10.808;2023-02-08T07:36:57;100528.97;;;-6.65;86.48
64078;BME280;51039;49.696;10.808;2023-02-08T07:39:22;100535.31;;;-6.77;87.54
64078;BME280;51039;49.696;10.808;2023-02-08T07:41:47;100527.53;;;-6.75;88.88
64078;BME280;51039;49.696;10.808;2023-02-08T07:44:13;100531.84;;;-5.83;93.21
64078;BME280;51039;49.696;10.808;2023-02-08T07:46:38;100527.00;;;-5.09;89.42
64078;BME280;51039;49.696;10.808;2023-02-08T07:49:04;100514.25;;;-4.39;84.37
64078;BME280;51039;49.696;10.808;2023-02-08T07:51:29;100518.91;;;-4.01;81.33
64078;BME280;51039;49.696;10.808;2023-02-08T07:53:54;100510.97;;;-3.97;79.97
64078;BME280;51039;49.696;10.808;2023-02-08T07:56:20;100513.09;;;-4.80;80.57
64078;BME280;51039;49.696;10.808;2023-02-08T07:58:45;100518.03;;;-5.26;83.51
64078;BME280;51039;49.696;10.808;2023-02-08T08:01:10;100507.84;;;-5.30;84.42
64078;BME280;51039;49.696;10.808;2023-02-08T08:03:36;100506.63;;;-5.19;86.23
64078;BME280;51039;49.696;10.808;2023-02-08T08:06:01;100500.19;;;-5.34;85.52
64078;BME280;51039;49.696;10.808;2023-02-08T08:08:26;100505.41;;;-5.35;85.50
64078;BME280;51039;49.696;10.808;2023-02-08T08:10:52;100508.53;;;-4.99;86.51
64078;BME280;51039;49.696;10.808;2023-02-08T08:13:18;100503.38;;;-4.99;83.28
64078;BME280;51039;49.696;10.808;2023-02-08T08:15:43;100504.25;;;-4.73;82.73
64078;BME280;51039;49.696;10.808;2023-02-08T08:18:08;100498.31;;;-4.04;80.45
64078;BME280;51039;49.696;10.808;2023-02-08T08:20:34;100506.50;;;-2.83;77.27
64078;BME280;51039;49.696;10.808;2023-02-08T08:22:59;100500.28;;;-2.00;73.38
64078;BME280;51039;49.696;10.808;2023-02-08T08:25:25;100500.88;;;-1.75;71.54
64078;BME280;51039;49.696;10.808;2023-02-08T08:27:51;100502.16;;;-1.65;70.97
64078;BME280;51039;49.696;10.808;2023-02-08T08:30:17;100499.72;;;-1.51;71.95
64078;BME280;51039;49.696;10.808;2023-02-08T08:32:42;100500.66;;;-0.98;70.63
64078;BME280;51039;49.696;10.808;2023-02-08T08:35:07;100489.84;;;-0.55;68.94
64078;BME280;51039;49.696;10.808;2023-02-08T08:37:33;100487.44;;;0.23;67.22
64078;BME280;51039;49.696;10.808;2023-02-08T08:40:00;100496.16;;;0.53;65.22
64078;BME280;51039;49.696;10.808;2023-02-08T08:42:26;100488.84;;;0.90;63.93
64078;BME280;51039;49.696;10.808;2023-02-08T08:44:51;100491.53;;;1.19;65.76
64078;BME280;51039;49.696;10.808;2023-02-08T08:47:17;100499.69;;;1.57;62.50
64078;BME280;51039;49.696;10.808;2023-02-08T08:49:43;100496.91;;;1.75;62.30
64078;BME280;51039;49.696;10.808;2023-02-08T08:52:08;100491.66;;;2.04;60.67
64078;BME280;51039;49.696;10.808;2023-02-08T08:54:34;100495.59;;;1.39;61.18
64078;BME280;51039;49.696;10.808;2023-02-08T08:57:00;100490.94;;;1.73;60.80
64078;BME280;51039;49.696;10.808;2023-02-08T08:59:25;100485.69;;;2.16;58.73
64078;BME280;51039;49.696;10.808;2023-02-08T09:01:51;100491.78;;;1.59;58.97
64078;BME280;51039;49.696;10.808;2023-02-08T09:04:16;100486.59;;;2.29;58.75
64078;BME280;51039;49.696;10.808;2023-02-08T09:06:41;100484.94;;;2.00;58.49
64078;BME280;51039;49.696;10.808;2023-02-08T09:09:07;100484.56;;;2.06;58.69
64078;BME280;51039;49.696;10.808;2023-02-08T09:11:32;100481.94;;;2.06;57.51
64078;BME280;51039;49.696;10.808;2023-02-08T09:13:58;100490.38;;;2.38;57.41
64078;BME280;51039;49.696;10.808;2023-02-08T09:16:26;100485.44;;;2.33;57.40
64078;BME280;51039;49.696;10.808;2023-02-08T09:18:51;100475.97;;;2.72;55.96
64078;BME280;51039;49.696;10.808;2023-02-08T09:21:17;100486.03;;;2.79;55.06
64078;BME280;51039;49.696;10.808;2023-02-08T09:23:45;100485.06;;;2.67;55.41
64078;BME280;51039;49.696;10.808;2023-02-08T09:26:15;100483.97;;;2.84;52.86
64078;BME280;51039;49.696;10.808;2023-02-08T09:28:41;100489.88;;;2.73;53.24
64078;BME280;51039;49.696;10.808;2023-02-08T09:31:28;100483.81;;;2.72;53.86
64078;BME280;51039;49.696;10.808;2023-02-08T09:33:54;100489.38;;;2.68;54.35
64078;BME280;51039;49.696;10.808;2023-02-08T09:36:22;100485.19;;;3.18;53.53
64078;BME280;51039;49.696;10.808;2023-02-08T09:38:49;100484.66;;;3.26;52.29
64078;BME280;51039;49.696;10.808;2023-02-08T09:47:02;100474.09;;;3.40;52.24
64078;BME280;51039;49.696;10.808;2023-02-08T09:49:42;100484.97;;;3.34;52.43
64078;BME280;51039;49.696;10.808;2023-02-08T09:52:18;100481.88;;;2.89;51.39
64078;BME280;51039;49.696;10.808;2023-02-08T09:54:53;100485.16;;;3.05;52.11
64078;BME280;51039;49.696;10.808;2023-02-08T09:57:25;100483.41;;;3.70;51.45
64078;BME280;51039;49.696;10.808;2023-02-08T09:59:55;100484.63;;;4.03;50.21
64078;BME280;51039;49.696;10.808;2023-02-08T10:02:25;100483.91;;;3.75;49.96
64078;BME280;51039;49.696;10.808;2023-02-08T10:07:24;100481.19;;;4.02;48.64
64078;BME280;51039;49.696;10.808;2023-02-08T10:09:51;100483.97;;;4.12;49.29
64078;BME280;51039;49.696;10.808;2023-02-08T10:15:46;100481.22;;;4.50;48.30
64078;BME280;51039;49.696;10.808;2023-02-08T10:35:07;100463.84;;;2.71;50.75
64078;BME280;51039;49.696;10.808;2023-02-08T10:37:37;100460.94;;;2.89;49.73
64078;BME280;51039;49.696;10.808;2023-02-08T10:40:23;100452.94;;;2.38;51.01
64078;BME280;51039;49.696;10.808;2023-02-08T10:46:00;100443.13;;;3.84;49.10
64078;BME280;51039;49.696;10.808;2023-02-08T10:51:20;100432.09;;;4.28;46.77
64078;BME280;51039;49.696;10.808;2023-02-08T10:53:46;100426.94;;;4.27;46.68
64078;BME280;51039;49.696;10.808;2023-02-08T10:56:20;100427.22;;;4.11;47.87
64078;BME280;51039;49.696;10.808;2023-02-08T10:58:57;100421.00;;;3.88;47.42
64078;BME280;51039;49.696;10.808;2023-02-08T11:01:25;100414.34;;;3.58;47.25
64078;BME280;51039;49.696;10.808;2023-02-08T11:04:08;100417.56;;;3.62;47.74
64078;BME280;51039;49.696;10.808;2023-02-08T11:06:36;100415.84;;;3.86;46.92
64078;BME280;51039;49.696;10.808;2023-02-08T11:09:03;100407.41;;;4.07;47.27
64078;BME280;51039;49.696;10.808;2023-02-08T11:11:34;100404.50;;;4.47;46.58
64078;BME280;51039;49.696;10.808;2023-02-08T11:14:09;100406.34;;;4.33;45.76
64078;BME280;51039;49.696;10.808;2023-02-08T11:16:41;100404.94;;;3.43;47.78
64078;BME280;51039;49.696;10.808;2023-02-08T11:19:19;100391.13;;;3.28;48.21
64078;BME280;51039;49.696;10.808;2023-02-08T11:22:16;100388.81;;;3.10;48.04
64078;BME280;51039;49.696;10.808;2023-02-08T11:24:44;100388.81;;;3.10;48.49
64078;BME280;51039;49.696;10.808;2023-02-08T11:30:10;100374.56;;;3.02;48.37
64078;BME280;51039;49.696;10.808;2023-02-08T11:32:46;100373.72;;;2.88;48.58
64078;BME280;51039;49.696;10.808;2023-02-08T11:35:20;100369.66;;;2.97;48.25
64078;BME280;51039;49.696;10.808;2023-02-08T11:37:48;100370.19;;;3.02;48.50
64078;BME280;51039;49.696;10.808;2023-02-08T11:40:17;100362.94;;;3.19;48.94
64078;BME280;51039;49.696;10.808;2023-02-08T11:42:48;100358.22;;;3.11;47.58
64078;BME280;51039;49.696;10.808;2023-02-08T11:45:20;100367.31;;;2.92;48.75
64078;BME280;51039;49.696;10.808;2023-02-08T11:47:48;100367.00;;;2.84;48.70
64078;BME280;51039;49.696;10.808;2023-02-08T11:50:22;100357.38;;;2.85;49.20
64078;BME280;51039;49.696;10.808;2023-02-08T11:52:57;100358.22;;;2.98;48.42
64078;BME280;51039;49.696;10.808;2023-02-08T11:55:26;100341.47;;;3.13;48.53
64078;BME280;51039;49.696;10.808;2023-02-08T11:58:00;100336.69;;;2.94;47.84
64078;BME280;51039;49.696;10.808;2023-02-08T12:00:41;100343.91;;;2.91;48.08
64078;BME280;51039;49.696;10.808;2023-02-08T12:03:41;100330.81;;;2.91;47.92
64078;BME280;51039;49.696;10.808;2023-02-08T12:11:47;100324.19;;;2.98;47.93
64078;BME280;51039;49.696;10.808;2023-02-08T12:17:18;100318.66;;;3.03;47.57
64078;BME280;51039;49.696;10.808;2023-02-08T12:22:32;100313.31;;;3.04;47.98
64078;BME280;51039;49.696;10.808;2023-02-08T12:25:38;100316.75;;;3.05;48.58
64078;BME280;51039;49.696;10.808;2023-02-08T12:34:07;100279.81;;;2.84;47.81
64078;BME280;51039;49.696;10.808;2023-02-08T12:39:51;100275.63;;;2.81;46.93
64078;BME280;51039;49.696;10.808;2023-02-08T12:54:01;100265.66;;;2.86;45.20
64078;BME280;51039;49.696;10.808;2023-02-08T12:56:48;100252.91;;;2.94;44.82
64078;BME280;51039;49.696;10.808;2023-02-08T12:59:25;100254.03;;;2.90;45.35
64078;BME280;51039;49.696;10.808;2023-02-08T13:02:10;100244.00;;;2.97;45.87
64078;BME280;51039;49.696;10.808;2023-02-08T13:04:44;100236.22;;;3.08;46.33
64078;BME280;51039;49.696;10.808;2023-02-08T13:07:21;100247.00;;;3.04;45.55
64078;BME280;51039;49.696;10.808;2023-02-08T13:12:31;100241.28;;;2.99;46.89
64078;BME280;51039;49.696;10.808;2023-02-08T13:15:14;100231.00;;;3.08;46.80
64078;BME280;51039;49.696;10.808;2023-02-08T13:17:48;100232.00;;;3.19;46.38
64078;BME280;51039;49.696;10.808;2023-02-08T13:20:32;100235.91;;;3.00;47.85
64078;BME280;51039;49.696;10.808;2023-02-08T13:25:52;100229.66;;;2.90;46.73
64078;BME280;51039;49.696;10.808;2023-02-08T13:28:23;100229.34;;;2.82;46.44
64078;BME280;51039;49.696;10.808;2023-02-08T13:30:57;100220.97;;;2.89;47.12
64078;BME280;51039;49.696;10.808;2023-02-08T13:33:32;100228.63;;;2.80;46.50
64078;BME280;51039;49.696;10.808;2023-02-08T13:36:10;100217.53;;;2.76;47.13
64078;BME280;51039;49.696;10.808;2023-02-08T13:38:51;100221.72;;;2.79;46.06
64078;BME280;51039;49.696;10.808;2023-02-08T13:41:18;100219.19;;;2.77;46.35
64078;BME280;51039;49.696;10.808;2023-02-08T13:46:48;100210.22;;;2.81;46.59
64078;BME280;51039;49.696;10.808;2023-02-08T13:58:02;100219.56;;;3.09;46.77
64078;BME280;51039;49.696;10.808;2023-02-08T14:03:20;100219.19;;;2.90;45.73
64078;BME280;51039;49.696;10.808;2023-02-08T14:05:58;100219.50;;;2.85;46.34
64078;BME280;51039;49.696;10.808;2023-02-08T14:19:29;100204.22;;;2.92;48.03
64078;BME280;51039;49.696;10.808;2023-02-08T14:22:01;100196.59;;;2.89;49.22
64078;BME280;51039;49.696;10.808;2023-02-08T14:24:30;100198.25;;;2.90;48.77
64078;BME280;51039;49.696;10.808;2023-02-08T14:29:30;100197.19;;;2.92;49.13
64078;BME280;51039;49.696;10.808;2023-02-08T14:31:57;100190.28;;;2.91;48.79
64078;BME280;51039;49.696;10.808;2023-02-08T14:34:27;100189.03;;;2.97;48.97
64078;BME280;51039;49.696;10.808;2023-02-08T14:37:44;100183.59;;;2.87;46.82
64078;BME280;51039;49.696;10.808;2023-02-08T14:39:45;100177.13;;;2.80;45.47
64078;BME280;51039;49.696;10.808;2023-02-08T14:42:14;100177.47;;;2.75;45.25
64078;BME280;51039;49.696;10.808;2023-02-08T14:45:27;100182.25;;;2.69;45.44
64078;BME280;51039;49.696;10.808;2023-02-08T14:53:25;100165.31;;;2.62;45.67
64078;BME280;51039;49.696;10.808;2023-02-08T14:55:55;100162.19;;;2.57;45.25
64078;BME280;51039;49.696;10.808;2023-02-08T14:58:33;100157.91;;;2.55;45.85
64078;BME280;51039;49.696;10.808;2023-02-08T15:01:06;100154.56;;;2.53;45.06
64078;BME280;51039;49.696;10.808;2023-02-08T15:03:43;100161.56;;;2.53;45.31
64078;BME280;51039;49.696;10.808;2023-02-08T15:08:34;100161.47;;;2.42;46.16
64078;BME280;51039;49.696;10.808;2023-02-08T15:11:00;100154.59;;;2.41;46.36
64078;BME280;51039;49.696;10.808;2023-02-08T15:13:25;100152.19;;;2.38;46.17
64078;BME280;51039;49.696;10.808;2023-02-08T15:15:54;100153.53;;;2.30;46.43
64078;BME280;51039;49.696;10.808;2023-02-08T15:18:22;100152.06;;;2.26;46.03
64078;BME280;51039;49.696;10.808;2023-02-08T15:21:01;100149.34;;;2.15;45.87